createdAt,value
2018-08-13T00:00:38.911Z,0
2018-08-13T00:01:19.481Z,0
2018-08-13T00:02:00.034Z,0
2018-08-13T00:02:40.604Z,0
2018-08-13T00:03:21.162Z,0
2018-08-13T00:04:01.736Z,0
2018-08-13T00:04:42.308Z,0
2018-08-13T00:05:22.909Z,0
2018-08-13T00:06:03.470Z,0
2018-08-13T00:06:44.034Z,0
2018-08-13T00:07:24.595Z,0
2018-08-13T00:08:05.179Z,0
2018-08-13T00:08:45.734Z,0
2018-08-13T00:09:26.299Z,0
2018-08-13T00:10:06.875Z,0
2018-08-13T00:10:47.476Z,0
2018-08-13T00:11:28.042Z,0
2018-08-13T00:12:08.605Z,0
2018-08-13T00:12:49.193Z,0
2018-08-13T00:13:29.906Z,0
2018-08-13T00:14:10.465Z,0
2018-08-13T00:14:51.035Z,0
2018-08-13T00:15:31.636Z,0
2018-08-13T00:16:12.262Z,0
2018-08-13T00:16:52.847Z,0
2018-08-13T00:17:33.471Z,0
2018-08-13T00:18:13.971Z,0
2018-08-13T00:18:54.545Z,0
2018-08-13T00:19:35.118Z,0
2018-08-13T00:20:15.675Z,0
2018-08-13T00:20:56.237Z,0
2018-08-13T00:21:36.810Z,0
2018-08-13T00:22:17.370Z,0
2018-08-13T00:22:57.937Z,0
2018-08-13T00:23:38.499Z,0
2018-08-13T00:24:19.061Z,0
2018-08-13T00:24:59.673Z,0
2018-08-13T00:25:40.242Z,0
2018-08-13T00:26:20.786Z,0
2018-08-13T00:27:01.353Z,0
2018-08-13T00:27:41.920Z,0
2018-08-13T00:28:22.489Z,0
2018-08-13T00:29:03.048Z,0
2018-08-13T00:29:43.614Z,0
2018-08-13T00:30:24.176Z,0
2018-08-13T00:31:04.761Z,0
2018-08-13T00:31:45.338Z,0
2018-08-13T00:32:25.913Z,0
2018-08-13T00:33:06.464Z,0
2018-08-13T00:33:47.022Z,0
2018-08-13T00:34:27.573Z,0
2018-08-13T00:35:08.142Z,0
2018-08-13T00:35:48.707Z,0
2018-08-13T00:36:29.300Z,0
2018-08-13T00:37:09.861Z,0
2018-08-13T00:37:50.434Z,0
2018-08-13T00:38:30.979Z,0
2018-08-13T00:39:11.553Z,0
2018-08-13T00:39:52.123Z,0
2018-08-13T00:40:32.686Z,0
2018-08-13T00:41:13.265Z,0
2018-08-13T00:41:53.826Z,0
2018-08-13T00:42:34.406Z,0
2018-08-13T00:43:14.958Z,0
2018-08-13T00:43:55.602Z,0
2018-08-13T00:44:36.185Z,0
2018-08-13T00:45:16.773Z,0
2018-08-13T00:45:57.343Z,0
2018-08-13T00:46:37.909Z,0
2018-08-13T00:47:18.473Z,0
2018-08-13T00:47:59.066Z,0
2018-08-13T00:48:39.649Z,0
2018-08-13T00:49:20.226Z,0
2018-08-13T00:50:00.757Z,0
2018-08-13T00:50:41.328Z,0
2018-08-13T00:51:21.887Z,0
2018-08-13T00:52:02.460Z,0
2018-08-13T00:52:43.124Z,0
2018-08-13T00:53:23.684Z,0
2018-08-13T00:54:04.483Z,0
2018-08-13T00:54:45.040Z,0
2018-08-13T00:55:25.626Z,0
2018-08-13T00:56:06.190Z,0
2018-08-13T00:56:46.783Z,0
2018-08-13T00:57:27.345Z,0
2018-08-13T00:58:07.965Z,0
2018-08-13T00:58:48.568Z,0
2018-08-13T00:59:29.139Z,0
2018-08-13T01:00:09.700Z,0
2018-08-13T01:00:50.307Z,0
2018-08-13T01:01:30.868Z,0
2018-08-13T01:02:11.436Z,0
2018-08-13T01:02:52.000Z,0
2018-08-13T01:03:32.567Z,0
2018-08-13T01:04:13.125Z,0
2018-08-13T01:04:53.689Z,0
2018-08-13T01:05:34.264Z,0
2018-08-13T01:06:14.828Z,0
2018-08-13T01:06:55.396Z,0
2018-08-13T01:07:35.952Z,0
2018-08-13T01:08:16.576Z,0
2018-08-13T01:08:57.103Z,0
2018-08-13T01:09:37.662Z,0
2018-08-13T01:10:18.369Z,0
2018-08-13T01:10:58.917Z,0
2018-08-13T01:11:39.478Z,0
2018-08-13T01:12:20.053Z,0
2018-08-13T01:13:00.593Z,0
2018-08-13T01:13:41.161Z,0
2018-08-13T01:14:21.724Z,0
2018-08-13T01:15:02.336Z,0
2018-08-13T01:15:42.903Z,0
2018-08-13T01:16:23.468Z,0
2018-08-13T01:17:04.029Z,0
2018-08-13T01:17:44.592Z,0
2018-08-13T01:18:25.162Z,0
2018-08-13T01:19:05.750Z,0
2018-08-13T01:19:46.314Z,0
2018-08-13T01:20:26.879Z,0
2018-08-13T01:21:07.489Z,0
2018-08-13T01:21:48.055Z,0
2018-08-13T01:22:28.622Z,0
2018-08-13T01:23:09.201Z,0
2018-08-13T01:23:49.777Z,0
2018-08-13T01:24:30.372Z,0
2018-08-13T01:25:10.929Z,0
2018-08-13T01:25:51.512Z,0
2018-08-13T01:26:32.076Z,0
2018-08-13T01:27:12.682Z,0
2018-08-13T01:27:53.284Z,0
2018-08-13T01:28:33.839Z,0
2018-08-13T01:29:14.408Z,0
2018-08-13T01:29:54.966Z,0
2018-08-13T01:30:35.530Z,0
2018-08-13T01:31:16.088Z,0
2018-08-13T01:31:56.660Z,0
2018-08-13T01:32:37.219Z,0
2018-08-13T01:33:17.791Z,0
2018-08-13T01:33:58.350Z,0
2018-08-13T01:34:38.915Z,0
2018-08-13T01:35:19.532Z,0
2018-08-13T01:36:00.042Z,0
2018-08-13T01:36:40.601Z,0
2018-08-13T01:37:21.156Z,0
2018-08-13T01:38:01.718Z,0
2018-08-13T01:38:42.272Z,0
2018-08-13T01:39:22.834Z,0
2018-08-13T01:40:03.396Z,0
2018-08-13T01:40:43.955Z,0
2018-08-13T01:41:24.526Z,0
2018-08-13T01:42:05.102Z,0
2018-08-13T01:42:45.640Z,0
2018-08-13T01:43:26.213Z,0
2018-08-13T01:44:06.787Z,0
2018-08-13T01:44:47.361Z,0
2018-08-13T01:45:27.911Z,0
2018-08-13T01:46:08.511Z,0
2018-08-13T01:46:49.083Z,0
2018-08-13T01:47:29.642Z,0
2018-08-13T01:48:10.233Z,0
2018-08-13T01:48:50.814Z,0
2018-08-13T01:49:31.384Z,0
2018-08-13T01:50:11.955Z,0
2018-08-13T01:50:52.515Z,0
2018-08-13T01:51:33.081Z,0
2018-08-13T01:52:13.652Z,0
2018-08-13T01:52:54.242Z,0
2018-08-13T01:53:34.814Z,0
2018-08-13T01:54:15.378Z,0
2018-08-13T01:54:56.015Z,0
2018-08-13T01:55:36.573Z,0
2018-08-13T01:56:17.139Z,0
2018-08-13T01:56:57.710Z,0
2018-08-13T01:57:38.254Z,0
2018-08-13T01:58:18.804Z,0
2018-08-13T01:58:59.404Z,0
2018-08-13T01:59:39.966Z,0
2018-08-13T02:00:20.522Z,0
2018-08-13T02:01:01.082Z,0
2018-08-13T02:01:41.660Z,0
2018-08-13T02:02:22.204Z,0
2018-08-13T02:03:02.761Z,0
2018-08-13T02:03:43.331Z,0
2018-08-13T02:04:23.901Z,0
2018-08-13T02:05:04.475Z,0
2018-08-13T02:05:45.041Z,0
2018-08-13T02:06:25.600Z,0
2018-08-13T02:07:06.153Z,0
2018-08-13T02:07:46.717Z,0
2018-08-13T02:08:27.281Z,0
2018-08-13T02:09:07.868Z,0
2018-08-13T02:09:48.434Z,0
2018-08-13T02:10:29.000Z,0
2018-08-13T02:11:09.568Z,0
2018-08-13T02:11:50.134Z,0
2018-08-13T02:12:30.704Z,0
2018-08-13T02:13:11.273Z,0
2018-08-13T02:13:51.841Z,0
2018-08-13T02:14:32.400Z,0
2018-08-13T02:15:12.971Z,0
2018-08-13T02:15:53.521Z,0
2018-08-13T02:16:34.085Z,0
2018-08-13T02:17:14.669Z,0
2018-08-13T02:17:55.227Z,0
2018-08-13T02:18:35.793Z,0
2018-08-13T02:19:16.354Z,0
2018-08-13T02:19:56.918Z,0
2018-08-13T02:20:37.484Z,0
2018-08-13T02:21:18.047Z,0
2018-08-13T02:21:58.605Z,0
2018-08-13T02:22:39.160Z,0
2018-08-13T02:23:19.727Z,0
2018-08-13T02:24:00.343Z,0
2018-08-13T02:24:40.918Z,0
2018-08-13T02:25:21.503Z,0
2018-08-13T02:26:02.100Z,0
2018-08-13T02:26:42.684Z,0
2018-08-13T02:27:23.259Z,0
2018-08-13T02:28:03.836Z,0
2018-08-13T02:28:44.406Z,0
2018-08-13T02:29:24.962Z,0
2018-08-13T02:30:05.541Z,0
2018-08-13T02:30:46.120Z,0
2018-08-13T02:31:26.673Z,0
2018-08-13T02:32:07.256Z,0
2018-08-13T02:32:47.812Z,0
2018-08-13T02:33:28.371Z,0
2018-08-13T02:34:08.950Z,0
2018-08-13T02:34:49.511Z,0
2018-08-13T02:35:30.081Z,0
2018-08-13T02:36:10.666Z,0
2018-08-13T02:36:51.224Z,0
2018-08-13T02:37:31.789Z,0
2018-08-13T02:38:12.352Z,0
2018-08-13T02:38:52.912Z,0
2018-08-13T02:39:33.471Z,0
2018-08-13T02:40:14.031Z,0
2018-08-13T02:40:54.606Z,0
2018-08-13T02:41:35.163Z,0
2018-08-13T02:42:15.722Z,0
2018-08-13T02:42:56.305Z,0
2018-08-13T02:43:36.858Z,0
2018-08-13T02:44:17.414Z,0
2018-08-13T02:44:58.012Z,0
2018-08-13T02:45:38.565Z,0
2018-08-13T02:46:19.156Z,0
2018-08-13T02:46:59.750Z,0
2018-08-13T02:47:40.310Z,0
2018-08-13T02:48:20.873Z,0
2018-08-13T02:49:01.443Z,0
2018-08-13T02:49:41.991Z,0
2018-08-13T02:50:22.560Z,0
2018-08-13T02:51:03.122Z,0
2018-08-13T02:51:43.675Z,0
2018-08-13T02:52:24.235Z,0
2018-08-13T02:53:04.838Z,0
2018-08-13T02:53:45.413Z,0
2018-08-13T02:54:25.975Z,0
2018-08-13T02:55:06.532Z,0
2018-08-13T02:55:47.103Z,0
2018-08-13T02:56:27.681Z,0
2018-08-13T02:57:08.224Z,0
2018-08-13T02:57:48.793Z,0
2018-08-13T02:58:29.355Z,0
2018-08-13T02:59:09.951Z,0
2018-08-13T02:59:50.514Z,0
2018-08-13T03:00:31.096Z,0
2018-08-13T03:01:11.659Z,0
2018-08-13T03:01:52.233Z,0
2018-08-13T03:02:32.799Z,0
2018-08-13T03:03:13.374Z,0
2018-08-13T03:03:53.936Z,0
2018-08-13T03:04:34.524Z,0
2018-08-13T03:05:15.053Z,0
2018-08-13T03:05:55.630Z,0
2018-08-13T03:06:36.194Z,0
2018-08-13T03:07:16.763Z,0
2018-08-13T03:07:57.324Z,0
2018-08-13T03:08:37.987Z,0
2018-08-13T03:09:18.566Z,0
2018-08-13T03:09:59.128Z,0
2018-08-13T03:10:39.721Z,0
2018-08-13T03:11:20.272Z,0
2018-08-13T03:12:00.835Z,0
2018-08-13T03:12:41.403Z,0
2018-08-13T03:13:21.952Z,0
2018-08-13T03:14:02.508Z,4
2018-08-13T03:14:43.061Z,4
2018-08-13T03:15:23.660Z,4
2018-08-13T03:16:04.214Z,4
2018-08-13T03:16:44.761Z,4
2018-08-13T03:17:25.331Z,4
2018-08-13T03:18:05.896Z,4
2018-08-13T03:18:46.464Z,4
2018-08-13T03:19:27.028Z,4
2018-08-13T03:20:07.585Z,8
2018-08-13T03:20:48.146Z,4
2018-08-13T03:21:28.704Z,8
2018-08-13T03:22:09.282Z,8
2018-08-13T03:22:49.831Z,8
2018-08-13T03:23:30.401Z,8
2018-08-13T03:24:10.955Z,8
2018-08-13T03:24:51.515Z,12
2018-08-13T03:25:32.073Z,12
2018-08-13T03:26:12.698Z,12
2018-08-13T03:26:53.260Z,12
2018-08-13T03:27:33.818Z,16
2018-08-13T03:28:14.385Z,16
2018-08-13T03:28:54.940Z,16
2018-08-13T03:29:35.502Z,20
2018-08-13T03:30:16.058Z,24
2018-08-13T03:30:56.635Z,24
2018-08-13T03:31:37.194Z,28
2018-08-13T03:32:17.785Z,28
2018-08-13T03:32:58.362Z,32
2018-08-13T03:33:39.019Z,36
2018-08-13T03:34:19.497Z,36
2018-08-13T03:35:00.072Z,40
2018-08-13T03:35:40.629Z,40
2018-08-13T03:36:21.185Z,44
2018-08-13T03:37:01.744Z,52
2018-08-13T03:37:42.310Z,52
2018-08-13T03:38:22.900Z,60
2018-08-13T03:39:03.489Z,60
2018-08-13T03:39:44.052Z,64
2018-08-13T03:40:24.607Z,72
2018-08-13T03:41:05.181Z,76
2018-08-13T03:41:45.754Z,80
2018-08-13T03:42:26.321Z,84
2018-08-13T03:43:06.876Z,92
2018-08-13T03:43:47.434Z,92
2018-08-13T03:44:27.996Z,100
2018-08-13T03:45:08.580Z,108
2018-08-13T03:45:49.144Z,116
2018-08-13T03:46:29.723Z,120
2018-08-13T03:47:10.296Z,128
2018-08-13T03:47:50.870Z,132
2018-08-13T03:48:31.443Z,144
2018-08-13T03:49:12.031Z,148
2018-08-13T03:49:52.592Z,156
2018-08-13T03:50:33.153Z,164
2018-08-13T03:51:13.717Z,172
2018-08-13T03:51:54.286Z,180
2018-08-13T03:52:34.850Z,188
2018-08-13T03:53:15.426Z,200
2018-08-13T03:53:56.162Z,208
2018-08-13T03:54:36.563Z,216
2018-08-13T03:55:17.149Z,228
2018-08-13T03:55:57.713Z,236
2018-08-13T03:56:38.274Z,248
2018-08-13T03:57:18.854Z,256
2018-08-13T03:57:59.404Z,272
2018-08-13T03:58:39.980Z,284
2018-08-13T03:59:20.533Z,296
2018-08-13T04:00:01.103Z,308
2018-08-13T04:00:41.670Z,320
2018-08-13T04:01:22.231Z,328
2018-08-13T04:02:02.796Z,344
2018-08-13T04:02:43.358Z,356
2018-08-13T04:03:23.916Z,368
2018-08-13T04:04:04.489Z,384
2018-08-13T04:04:45.050Z,400
2018-08-13T04:05:25.603Z,416
2018-08-13T04:06:06.188Z,436
2018-08-13T04:06:46.754Z,452
2018-08-13T04:07:27.311Z,472
2018-08-13T04:08:07.874Z,488
2018-08-13T04:08:48.454Z,508
2018-08-13T04:09:29.041Z,528
2018-08-13T04:10:09.605Z,544
2018-08-13T04:10:50.167Z,556
2018-08-13T04:11:30.736Z,572
2018-08-13T04:12:11.294Z,588
2018-08-13T04:12:51.969Z,604
2018-08-13T04:13:32.482Z,616
2018-08-13T04:14:13.043Z,632
2018-08-13T04:14:53.600Z,648
2018-08-13T04:15:34.177Z,664
2018-08-13T04:16:14.735Z,680
2018-08-13T04:16:55.306Z,692
2018-08-13T04:17:35.868Z,708
2018-08-13T04:18:16.439Z,724
2018-08-13T04:18:57.005Z,740
2018-08-13T04:19:37.563Z,752
2018-08-13T04:20:18.116Z,768
2018-08-13T04:20:58.688Z,780
2018-08-13T04:21:39.252Z,796
2018-08-13T04:22:19.847Z,812
2018-08-13T04:23:00.429Z,824
2018-08-13T04:23:40.996Z,840
2018-08-13T04:24:21.580Z,852
2018-08-13T04:25:02.138Z,868
2018-08-13T04:25:42.706Z,880
2018-08-13T04:26:23.338Z,896
2018-08-13T04:27:03.914Z,908
2018-08-13T04:27:44.481Z,924
2018-08-13T04:28:25.070Z,940
2018-08-13T04:29:05.641Z,952
2018-08-13T04:29:46.215Z,968
2018-08-13T04:30:26.762Z,980
2018-08-13T04:31:07.334Z,996
2018-08-13T04:31:47.931Z,1008
2018-08-13T04:32:28.503Z,1024
2018-08-13T04:33:09.049Z,1036
2018-08-13T04:33:49.614Z,1052
2018-08-13T04:34:30.167Z,1064
2018-08-13T04:35:10.735Z,1080
2018-08-13T04:35:51.288Z,1096
2018-08-13T04:36:31.853Z,1108
2018-08-13T04:37:12.439Z,1120
2018-08-13T04:37:53.000Z,1136
2018-08-13T04:38:33.676Z,1152
2018-08-13T04:39:14.167Z,1164
2018-08-13T04:39:54.750Z,1176
2018-08-13T04:40:35.309Z,1192
2018-08-13T04:41:15.871Z,1204
2018-08-13T04:41:56.417Z,1220
2018-08-13T04:42:37.005Z,1236
2018-08-13T04:43:17.550Z,1252
2018-08-13T04:43:58.105Z,1264
2018-08-13T04:44:38.654Z,1284
2018-08-13T04:45:19.227Z,1300
2018-08-13T04:45:59.791Z,1312
2018-08-13T04:46:40.355Z,1336
2018-08-13T04:47:20.914Z,1352
2018-08-13T04:48:01.482Z,1368
2018-08-13T04:48:42.065Z,1388
2018-08-13T04:49:22.701Z,1404
2018-08-13T04:50:03.436Z,1428
2018-08-13T04:50:43.992Z,1456
2018-08-13T04:51:24.552Z,1484
2018-08-13T04:52:05.129Z,1516
2018-08-13T04:52:45.681Z,1552
2018-08-13T04:53:26.234Z,1588
2018-08-13T04:54:06.881Z,1620
2018-08-13T04:54:47.452Z,1652
2018-08-13T04:55:28.065Z,1688
2018-08-13T04:56:08.627Z,1716
2018-08-13T04:56:49.204Z,1748
2018-08-13T04:57:29.764Z,1772
2018-08-13T04:58:10.324Z,1800
2018-08-13T04:58:50.938Z,1832
2018-08-13T04:59:31.450Z,1860
2018-08-13T05:00:12.006Z,1892
2018-08-13T05:00:52.590Z,1912
2018-08-13T05:01:33.176Z,1928
2018-08-13T05:02:13.739Z,1944
2018-08-13T05:02:54.301Z,1952
2018-08-13T05:03:34.863Z,1964
2018-08-13T05:04:15.425Z,1972
2018-08-13T05:04:55.979Z,1972
2018-08-13T05:05:36.537Z,1972
2018-08-13T05:06:17.086Z,1972
2018-08-13T05:06:57.660Z,1972
2018-08-13T05:07:38.239Z,1964
2018-08-13T05:08:18.800Z,1968
2018-08-13T05:08:59.358Z,1976
2018-08-13T05:09:39.917Z,1996
2018-08-13T05:10:20.484Z,2016
2018-08-13T05:11:01.063Z,2036
2018-08-13T05:11:41.630Z,2044
2018-08-13T05:12:22.182Z,2052
2018-08-13T05:13:02.737Z,2052
2018-08-13T05:13:43.321Z,2056
2018-08-13T05:14:23.916Z,2056
2018-08-13T05:15:04.470Z,2060
2018-08-13T05:15:45.040Z,2072
2018-08-13T05:16:25.614Z,2092
2018-08-13T05:17:06.215Z,2124
2018-08-13T05:17:46.771Z,2152
2018-08-13T05:18:27.343Z,2192
2018-08-13T05:19:07.896Z,2244
2018-08-13T05:19:48.485Z,2304
2018-08-13T05:20:29.052Z,2364
2018-08-13T05:21:09.661Z,2396
2018-08-13T05:21:50.170Z,2420
2018-08-13T05:22:30.726Z,2452
2018-08-13T05:23:11.280Z,2496
2018-08-13T05:23:51.838Z,2568
2018-08-13T05:24:32.399Z,2660
2018-08-13T05:25:13.466Z,2760
2018-08-13T05:25:54.036Z,2864
2018-08-13T05:26:34.598Z,2968
2018-08-13T05:27:15.177Z,3072
2018-08-13T05:27:55.725Z,3156
2018-08-13T05:28:36.318Z,3220
2018-08-13T05:29:16.879Z,3276
2018-08-13T05:29:57.508Z,3316
2018-08-13T05:30:38.004Z,3356
2018-08-13T05:31:18.576Z,3392
2018-08-13T05:31:59.136Z,3412
2018-08-13T05:32:39.704Z,3436
2018-08-13T05:33:20.254Z,3456
2018-08-13T05:34:00.818Z,3472
2018-08-13T05:34:41.376Z,3476
2018-08-13T05:35:21.946Z,3480
2018-08-13T05:36:02.508Z,3480
2018-08-13T05:36:43.071Z,3468
2018-08-13T05:37:23.634Z,3432
2018-08-13T05:38:04.199Z,3380
2018-08-13T05:38:44.764Z,3320
2018-08-13T05:39:25.328Z,3296
2018-08-13T05:40:05.874Z,3288
2018-08-13T05:40:46.433Z,3308
2018-08-13T05:41:27.044Z,3300
2018-08-13T05:42:07.611Z,3348
2018-08-13T05:42:48.171Z,3376
2018-08-13T05:43:28.725Z,3400
2018-08-13T05:44:09.290Z,3392
2018-08-13T05:44:49.855Z,3360
2018-08-13T05:45:30.423Z,3356
2018-08-13T05:46:10.991Z,3404
2018-08-13T05:46:51.546Z,3464
2018-08-13T05:47:32.116Z,3540
2018-08-13T05:48:12.677Z,3628
2018-08-13T05:48:53.237Z,3752
2018-08-13T05:49:33.793Z,3976
2018-08-13T05:50:14.352Z,4464
2018-08-13T05:50:54.948Z,15152
2018-08-13T05:51:35.537Z,35072
2018-08-13T05:52:16.181Z,54272
2018-08-13T05:52:56.915Z,72480
2018-08-13T05:53:37.833Z,77536
2018-08-13T05:54:18.897Z,68224
2018-08-13T05:54:59.474Z,67008
2018-08-13T05:55:40.048Z,77696
2018-08-13T05:56:20.700Z,90080
2018-08-13T05:57:02.318Z,91040
2018-08-13T05:57:42.870Z,90624
2018-08-13T05:58:23.439Z,90144
2018-08-13T05:59:04.021Z,87648
2018-08-13T05:59:44.591Z,84256
2018-08-13T06:00:25.182Z,80928
2018-08-13T06:01:05.756Z,78752
2018-08-13T06:01:46.320Z,83168
2018-08-13T06:02:26.887Z,86752
2018-08-13T06:03:07.503Z,87680
2018-08-13T06:03:48.049Z,84800
2018-08-13T06:04:28.664Z,84192
2018-08-13T06:05:09.227Z,82976
2018-08-13T06:05:49.793Z,65024
2018-08-13T06:06:30.364Z,70528
2018-08-13T06:07:10.934Z,73472
2018-08-13T06:07:51.508Z,70304
2018-08-13T06:08:32.076Z,72288
2018-08-13T06:09:12.633Z,73664
2018-08-13T06:09:53.195Z,71264
2018-08-13T06:10:33.745Z,71552
2018-08-13T06:11:14.396Z,73824
2018-08-13T06:11:54.912Z,73984
2018-08-13T06:12:35.489Z,74688
2018-08-13T06:13:16.054Z,68192
2018-08-13T06:13:56.637Z,65536
2018-08-13T06:14:37.253Z,56160
2018-08-13T06:15:17.783Z,59520
2018-08-13T06:15:58.341Z,65472
2018-08-13T06:16:38.903Z,66112
2018-08-13T06:17:19.494Z,66656
2018-08-13T06:18:00.058Z,67712
2018-08-13T06:18:40.633Z,73056
2018-08-13T06:19:21.194Z,78976
2018-08-13T06:20:01.769Z,81920
2018-08-13T06:20:42.351Z,84704
2018-08-13T06:21:22.903Z,84640
2018-08-13T06:22:03.469Z,82816
2018-08-13T06:22:44.050Z,80832
2018-08-13T06:23:24.617Z,75552
2018-08-13T06:24:05.212Z,73056
2018-08-13T06:24:45.752Z,73568
2018-08-13T06:25:26.339Z,76128
2018-08-13T06:26:06.907Z,78208
2018-08-13T06:26:47.477Z,80064
2018-08-13T06:27:28.059Z,82560
2018-08-13T06:28:08.733Z,84320
2018-08-13T06:28:49.387Z,84800
2018-08-13T06:29:29.972Z,83328
2018-08-13T06:30:10.529Z,84800
2018-08-13T06:30:51.106Z,83712
2018-08-13T06:31:31.755Z,80544
2018-08-13T06:32:12.367Z,79232
2018-08-13T06:32:52.942Z,83264
2018-08-13T06:33:33.511Z,89056
2018-08-13T06:34:14.947Z,91936
2018-08-13T06:34:55.502Z,92512
2018-08-13T06:35:36.091Z,91872
2018-08-13T06:36:16.664Z,90176
2018-08-13T06:36:57.244Z,89824
2018-08-13T06:37:37.977Z,88416
2018-08-13T06:38:18.538Z,87744
2018-08-13T06:38:59.131Z,83456
2018-08-13T06:39:39.712Z,81440
2018-08-13T06:40:20.296Z,84128
2018-08-13T06:41:00.884Z,85312
2018-08-13T06:41:41.516Z,85472
2018-08-13T06:42:22.099Z,86880
2018-08-13T06:43:02.677Z,88608
2018-08-13T06:43:43.255Z,83840
2018-08-13T06:44:23.863Z,84096
2018-08-13T06:45:04.447Z,84224
2018-08-13T06:45:45.021Z,90048
2018-08-13T06:46:25.631Z,94048
2018-08-13T06:47:06.335Z,91488
2018-08-13T06:47:46.826Z,88992
2018-08-13T06:48:27.405Z,85376
2018-08-13T06:49:07.972Z,87776
2018-08-13T06:49:48.533Z,85504
2018-08-13T06:50:29.100Z,82784
2018-08-13T06:51:09.689Z,84032
2018-08-13T06:51:50.241Z,82400
2018-08-13T06:52:30.805Z,81344
2018-08-13T06:53:11.399Z,80928
2018-08-13T06:53:52.108Z,80096
2018-08-13T06:54:32.605Z,81696
2018-08-13T06:55:13.187Z,83552
2018-08-13T06:55:53.769Z,77184
2018-08-13T06:56:34.346Z,63552
2018-08-13T06:57:14.907Z,70880
2018-08-13T06:57:55.486Z,66816
2018-08-13T06:58:36.051Z,71904
2018-08-13T06:59:16.710Z,67072
2018-08-13T06:59:57.298Z,56576
2018-08-13T07:00:37.858Z,56192
2018-08-13T07:01:18.435Z,66464
2018-08-13T07:01:59.008Z,65440
2018-08-13T07:02:39.637Z,71008
2018-08-13T07:03:20.320Z,72416
2018-08-13T07:04:00.905Z,61632
2018-08-13T07:04:41.480Z,57536
2018-08-13T07:05:22.054Z,60032
2018-08-13T07:06:02.675Z,64416
2018-08-13T07:06:43.219Z,66848
2018-08-13T07:07:23.789Z,58912
2018-08-13T07:08:04.359Z,77888
2018-08-13T07:08:44.938Z,80800
2018-08-13T07:09:25.511Z,83872
2018-08-13T07:10:06.602Z,88480
2018-08-13T07:10:47.237Z,90656
2018-08-13T07:11:27.873Z,88736
2018-08-13T07:12:08.702Z,84352
2018-08-13T07:12:49.508Z,78304
2018-08-13T07:13:30.164Z,74240
2018-08-13T07:14:10.778Z,75072
2018-08-13T07:14:51.806Z,74752
2018-08-13T07:15:32.780Z,79296
2018-08-13T07:16:13.442Z,76512
2018-08-13T07:16:54.041Z,75648
2018-08-13T07:17:35.008Z,76768
2018-08-13T07:18:15.546Z,79296
2018-08-13T07:18:56.140Z,82976
2018-08-13T07:19:36.771Z,83616
2018-08-13T07:20:17.472Z,80960
2018-08-13T07:20:57.950Z,80032
2018-08-13T07:21:38.553Z,77632
2018-08-13T07:22:19.239Z,81408
2018-08-13T07:23:00.076Z,82400
2018-08-13T07:23:40.872Z,61024
2018-08-13T07:24:22.759Z,75136
2018-08-13T07:25:03.438Z,82976
2018-08-13T07:25:44.068Z,88864
2018-08-13T07:26:24.867Z,91712
2018-08-13T07:27:05.885Z,87520
2018-08-13T07:27:47.019Z,82176
2018-08-13T07:28:28.228Z,80512
2018-08-13T07:29:08.987Z,80704
2018-08-13T07:29:49.734Z,83072
2018-08-13T07:30:31.244Z,87008
2018-08-13T07:31:11.953Z,86336
2018-08-13T07:31:52.546Z,84992
2018-08-13T07:32:33.288Z,86112
2018-08-13T07:33:14.184Z,89248
2018-08-13T07:33:54.760Z,89632
2018-08-13T07:34:35.348Z,82272
2018-08-13T07:35:16.197Z,82304
2018-08-13T07:35:57.292Z,79552
2018-08-13T07:36:37.632Z,89696
2018-08-13T07:37:18.234Z,92928
2018-08-13T07:37:58.889Z,99424
2018-08-13T07:38:39.475Z,99168
2018-08-13T07:39:20.109Z,99872
2018-08-13T07:40:00.612Z,100256
2018-08-13T07:40:41.194Z,98080
2018-08-13T07:41:21.761Z,93184
2018-08-13T07:42:02.339Z,90880
2018-08-13T07:42:42.936Z,93696
2018-08-13T07:43:23.527Z,95520
2018-08-13T07:44:04.136Z,96864
2018-08-13T07:44:44.694Z,94944
2018-08-13T07:45:25.293Z,93376
2018-08-13T07:46:05.837Z,92160
2018-08-13T07:46:46.412Z,92672
2018-08-13T07:47:27.042Z,88512
2018-08-13T07:48:07.649Z,84672
2018-08-13T07:48:48.795Z,85504
2018-08-13T07:49:29.389Z,88832
2018-08-13T07:50:10.004Z,92352
2018-08-13T07:50:50.600Z,95456
2018-08-13T07:51:31.316Z,96480
2018-08-13T07:52:11.969Z,97856
2018-08-13T07:52:52.534Z,99520
2018-08-13T07:53:33.346Z,97216
2018-08-13T07:54:14.008Z,94784
2018-08-13T07:54:54.565Z,94560
2018-08-13T07:55:35.168Z,94304
2018-08-13T07:56:15.769Z,95168
2018-08-13T07:56:56.355Z,95328
2018-08-13T07:57:37.057Z,94944
2018-08-13T07:58:17.640Z,94592
2018-08-13T07:58:58.211Z,95136
2018-08-13T07:59:38.841Z,91840
2018-08-13T08:00:19.403Z,89440
2018-08-13T08:00:59.969Z,90144
2018-08-13T08:01:40.546Z,90112
2018-08-13T08:02:21.132Z,86432
2018-08-13T08:03:01.703Z,86080
2018-08-13T08:03:42.291Z,85600
2018-08-13T08:04:22.861Z,87520
2018-08-13T08:05:03.427Z,87936
2018-08-13T08:05:44.000Z,86624
2018-08-13T08:06:24.719Z,86080
2018-08-13T08:07:05.387Z,86784
2018-08-13T08:07:46.166Z,85536
2018-08-13T08:08:26.860Z,82592
2018-08-13T08:09:07.540Z,79872
2018-08-13T08:09:48.313Z,67232
2018-08-13T08:10:28.707Z,43488
2018-08-13T08:11:09.284Z,23264
2018-08-13T08:11:49.879Z,19456
2018-08-13T08:12:30.469Z,18464
2018-08-13T08:13:11.098Z,17952
2018-08-13T08:13:51.608Z,17600
2018-08-13T08:14:32.172Z,17312
2018-08-13T08:15:12.779Z,17120
2018-08-13T08:15:53.344Z,16736
2018-08-13T08:16:33.915Z,16352
2018-08-13T08:17:14.502Z,15936
2018-08-13T08:17:55.156Z,15488
2018-08-13T08:18:35.751Z,15200
2018-08-13T08:19:16.329Z,14616
2018-08-13T08:19:56.927Z,14216
2018-08-13T08:20:37.537Z,13820
2018-08-13T08:21:18.120Z,13472
2018-08-13T08:21:58.701Z,13080
2018-08-13T08:22:39.283Z,12732
2018-08-13T08:23:19.899Z,12404
2018-08-13T08:24:00.459Z,12044
2018-08-13T08:24:41.108Z,11700
2018-08-13T08:25:21.683Z,11400
2018-08-13T08:26:02.254Z,11072
2018-08-13T08:26:42.834Z,10780
2018-08-13T08:27:23.376Z,10484
2018-08-13T08:28:03.965Z,10272
2018-08-13T08:28:44.536Z,10032
2018-08-13T08:29:25.212Z,9844
2018-08-13T08:30:05.754Z,9640
2018-08-13T08:30:46.377Z,9484
2018-08-13T08:31:26.943Z,9324
2018-08-13T08:32:07.517Z,9156
2018-08-13T08:32:48.086Z,9012
2018-08-13T08:33:28.676Z,8856
2018-08-13T08:34:09.239Z,8728
2018-08-13T08:34:49.876Z,8600
2018-08-13T08:35:30.424Z,8444
2018-08-13T08:36:10.967Z,8320
2018-08-13T08:36:51.544Z,8168
2018-08-13T08:37:32.109Z,8040
2018-08-13T08:38:12.693Z,7888
2018-08-13T08:38:53.287Z,7780
2018-08-13T08:39:33.873Z,7680
2018-08-13T08:40:14.434Z,7564
2018-08-13T08:40:55.268Z,7476
2018-08-13T08:41:35.880Z,7408
2018-08-13T08:42:16.462Z,7388
2018-08-13T08:42:57.035Z,7340
2018-08-13T08:43:37.691Z,6856
2018-08-13T08:44:18.428Z,6264
2018-08-13T08:44:59.135Z,6672
2018-08-13T08:45:39.813Z,6840
2018-08-13T08:46:20.492Z,6780
2018-08-13T08:47:01.118Z,6644
2018-08-13T08:47:41.757Z,6972
2018-08-13T08:48:22.350Z,6940
2018-08-13T08:49:02.932Z,7860
2018-08-13T08:49:43.502Z,5424
2018-08-13T08:50:24.077Z,6024
2018-08-13T08:51:04.646Z,6388
2018-08-13T08:51:45.234Z,6356
2018-08-13T08:52:25.789Z,6280
2018-08-13T08:53:06.356Z,6048
2018-08-13T08:53:46.924Z,5844
2018-08-13T08:54:27.536Z,5748
2018-08-13T08:55:08.085Z,5712
2018-08-13T08:55:48.640Z,5760
2018-08-13T08:56:29.216Z,5944
2018-08-13T08:57:09.803Z,6056
2018-08-13T08:57:50.397Z,5932
2018-08-13T08:58:30.964Z,6124
2018-08-13T08:59:11.529Z,6204
2018-08-13T08:59:52.138Z,6416
2018-08-13T09:00:32.712Z,7264
2018-08-13T09:01:13.281Z,7072
2018-08-13T09:01:53.853Z,7452
2018-08-13T09:02:34.416Z,7384
2018-08-13T09:03:15.292Z,7556
2018-08-13T09:03:55.883Z,7876
2018-08-13T09:04:36.442Z,8324
2018-08-13T09:05:17.014Z,8476
2018-08-13T09:05:57.604Z,8768
2018-08-13T09:06:38.223Z,8592
2018-08-13T09:07:18.975Z,7460
2018-08-13T09:07:59.846Z,7264
2018-08-13T09:08:40.593Z,7052
2018-08-13T09:09:21.167Z,7156
2018-08-13T09:10:02.031Z,7400
2018-08-13T09:10:42.617Z,7708
2018-08-13T09:11:23.199Z,7632
2018-08-13T09:12:03.767Z,7500
2018-08-13T09:12:44.338Z,7288
2018-08-13T09:13:25.226Z,7076
2018-08-13T09:14:06.262Z,6828
2018-08-13T09:14:47.059Z,6524
2018-08-13T09:15:27.776Z,6396
2018-08-13T09:16:08.352Z,6168
2018-08-13T09:16:49.023Z,5916
2018-08-13T09:17:29.627Z,5708
2018-08-13T09:18:10.197Z,5544
2018-08-13T09:18:50.781Z,5372